sensor_id;sensor_type;location;lat;lon;timestamp;P1;durP1;ratioP1;P2;durP2;ratioP2
58982;SDS011;44771;49.982;8.560;2023-05-10T00:04:12;11.27;;;10.68;;
58982;SDS011;44771;49.982;8.560;2023-05-10T00:09:16;10.40;;;9.80;;
58982;SDS011;44771;49.982;8.560;2023-05-10T00:14:20;10.88;;;10.27;;
58982;SDS011;44771;49.982;8.560;2023-05-10T00:19:24;10.15;;;9.65;;
58982;SDS011;44771;49.982;8.560;2023-05-10T00:24:26;11.35;;;10.85;;
58982;SDS011;44771;49.982;8.560;2023-05-10T00:29:30;11.75;;;11.10;;
58982;SDS011;44771;49.982;8.560;2023-05-10T00:34:35;10.40;;;9.90;;
58982;SDS011;44771;49.982;8.560;2023-05-10T00:39:38;12.02;;;11.25;;
58982;SDS011;44771;49.982;8.560;2023-05-10T00:44:46;10.38;;;9.88;;
58982;SDS011;44771;49.982;8.560;2023-05-10T00:49:48;10.43;;;9.90;;
58982;SDS011;44771;49.982;8.560;2023-05-10T00:54:51;12.45;;;11.82;;
58982;SDS011;44771;49.982;8.560;2023-05-10T01:10:49;12.13;;;11.43;;
58982;SDS011;44771;49.982;8.560;2023-05-10T01:15:51;11.35;;;10.43;;
58982;SDS011;44771;49.982;8.560;2023-05-10T01:20:55;13.07;;;12.27;;
58982;SDS011;44771;49.982;8.560;2023-05-10T01:26:16;11.90;;;11.30;;
58982;SDS011;44771;49.982;8.560;2023-05-10T01:31:52;11.32;;;10.73;;
58982;SDS011;44771;49.982;8.560;2023-05-10T01:37:06;11.98;;;10.70;;
58982;SDS011;44771;49.982;8.560;2023-05-10T01:42:14;11.43;;;10.77;;
58982;SDS011;44771;49.982;8.560;2023-05-10T01:47:23;12.10;;;11.18;;
58982;SDS011;44771;49.982;8.560;2023-05-10T01:52:32;11.63;;;10.93;;
58982;SDS011;44771;49.982;8.560;2023-05-10T01:57:37;11.73;;;11.07;;
58982;SDS011;44771;49.982;8.560;2023-05-10T02:02:42;12.18;;;11.55;;
58982;SDS011;44771;49.982;8.560;2023-05-10T02:07:47;10.20;;;9.70;;
58982;SDS011;44771;49.982;8.560;2023-05-10T02:12:50;12.20;;;11.52;;
58982;SDS011;44771;49.982;8.560;2023-05-10T02:17:56;12.98;;;12.00;;
58982;SDS011;44771;49.982;8.560;2023-05-10T02:23:01;12.50;;;11.77;;
58982;SDS011;44771;49.982;8.560;2023-05-10T02:28:07;12.25;;;11.55;;
58982;SDS011;44771;49.982;8.560;2023-05-10T02:33:13;11.70;;;11.10;;
58982;SDS011;44771;49.982;8.560;2023-05-10T02:38:18;11.80;;;10.55;;
58982;SDS011;44771;49.982;8.560;2023-05-10T02:43:42;12.85;;;11.98;;
58982;SDS011;44771;49.982;8.560;2023-05-10T02:49:03;12.25;;;11.50;;
58982;SDS011;44771;49.982;8.560;2023-05-10T02:54:11;11.23;;;10.63;;
58982;SDS011;44771;49.982;8.560;2023-05-10T02:59:16;13.15;;;12.20;;
58982;SDS011;44771;49.982;8.560;2023-05-10T03:04:19;13.40;;;12.30;;
58982;SDS011;44771;49.982;8.560;2023-05-10T03:09:24;12.20;;;11.50;;
58982;SDS011;44771;49.982;8.560;2023-05-10T03:14:31;13.57;;;12.68;;
58982;SDS011;44771;49.982;8.560;2023-05-10T03:19:46;12.48;;;11.43;;
58982;SDS011;44771;49.982;8.560;2023-05-10T03:24:53;13.10;;;12.20;;
58982;SDS011;44771;49.982;8.560;2023-05-10T03:29:57;12.35;;;11.45;;
58982;SDS011;44771;49.982;8.560;2023-05-10T03:35:01;11.88;;;11.00;;
58982;SDS011;44771;49.982;8.560;2023-05-10T03:40:07;11.70;;;11.00;;
58982;SDS011;44771;49.982;8.560;2023-05-10T03:45:10;12.35;;;11.35;;
58982;SDS011;44771;49.982;8.560;2023-05-10T03:50:13;12.77;;;12.02;;
58982;SDS011;44771;49.982;8.560;2023-05-10T03:55:16;13.13;;;12.23;;
58982;SDS011;44771;49.982;8.560;2023-05-10T04:00:18;13.20;;;12.20;;
58982;SDS011;44771;49.982;8.560;2023-05-10T04:05:22;13.00;;;12.07;;
58982;SDS011;44771;49.982;8.560;2023-05-10T04:10:24;12.98;;;12.13;;
58982;SDS011;44771;49.982;8.560;2023-05-10T04:15:26;13.62;;;12.55;;
58982;SDS011;44771;49.982;8.560;2023-05-10T04:20:29;14.02;;;13.13;;
58982;SDS011;44771;49.982;8.560;2023-05-10T04:25:33;12.27;;;11.52;;
58982;SDS011;44771;49.982;8.560;2023-05-10T04:30:35;13.05;;;12.15;;
58982;SDS011;44771;49.982;8.560;2023-05-10T04:35:42;14.65;;;13.65;;
58982;SDS011;44771;49.982;8.560;2023-05-10T04:40:46;13.62;;;12.43;;
58982;SDS011;44771;49.982;8.560;2023-05-10T04:46:10;12.75;;;11.95;;
58982;SDS011;44771;49.982;8.560;2023-05-10T04:51:13;13.02;;;11.80;;
58982;SDS011;44771;49.982;8.560;2023-05-10T04:56:29;13.75;;;12.75;;
58982;SDS011;44771;49.982;8.560;2023-05-10T05:01:42;26.30;;;15.00;;
58982;SDS011;44771;49.982;8.560;2023-05-10T05:06:46;15.68;;;14.27;;
58982;SDS011;44771;49.982;8.560;2023-05-10T05:11:47;13.90;;;12.75;;
58982;SDS011;44771;49.982;8.560;2023-05-10T05:16:49;14.68;;;13.43;;
58982;SDS011;44771;49.982;8.560;2023-05-10T05:21:56;14.93;;;13.82;;
58982;SDS011;44771;49.982;8.560;2023-05-10T05:27:04;16.80;;;15.02;;
58982;SDS011;44771;49.982;8.560;2023-05-10T05:32:06;13.73;;;12.43;;
58982;SDS011;44771;49.982;8.560;2023-05-10T05:37:09;13.73;;;12.63;;
58982;SDS011;44771;49.982;8.560;2023-05-10T05:42:14;15.07;;;13.90;;
58982;SDS011;44771;49.982;8.560;2023-05-10T05:47:16;14.87;;;13.70;;
58982;SDS011;44771;49.982;8.560;2023-05-10T05:52:19;14.32;;;13.23;;
58982;SDS011;44771;49.982;8.560;2023-05-10T05:57:21;16.40;;;13.45;;
58982;SDS011;44771;49.982;8.560;2023-05-10T06:02:23;16.42;;;13.55;;
58982;SDS011;44771;49.982;8.560;2023-05-10T06:07:26;14.65;;;13.32;;
58982;SDS011;44771;49.982;8.560;2023-05-10T06:12:28;14.82;;;13.55;;
58982;SDS011;44771;49.982;8.560;2023-05-10T06:17:33;14.30;;;13.18;;
58982;SDS011;44771;49.982;8.560;2023-05-10T06:22:36;16.75;;;13.48;;
58982;SDS011;44771;49.982;8.560;2023-05-10T06:27:38;14.60;;;13.02;;
58982;SDS011;44771;49.982;8.560;2023-05-10T06:32:39;14.07;;;13.02;;
58982;SDS011;44771;49.982;8.560;2023-05-10T06:37:43;18.92;;;13.90;;
58982;SDS011;44771;49.982;8.560;2023-05-10T06:42:45;19.25;;;13.95;;
58982;SDS011;44771;49.982;8.560;2023-05-10T06:47:47;14.55;;;13.32;;
58982;SDS011;44771;49.982;8.560;2023-05-10T06:52:50;15.65;;;14.10;;
58982;SDS011;44771;49.982;8.560;2023-05-10T06:57:53;15.95;;;14.27;;
58982;SDS011;44771;49.982;8.560;2023-05-10T07:02:57;15.25;;;13.70;;
58982;SDS011;44771;49.982;8.560;2023-05-10T07:08:00;15.80;;;14.43;;
58982;SDS011;44771;49.982;8.560;2023-05-10T07:13:02;14.75;;;13.45;;
58982;SDS011;44771;49.982;8.560;2023-05-10T07:18:04;18.27;;;15.38;;
58982;SDS011;44771;49.982;8.560;2023-05-10T07:23:07;24.63;;;13.80;;
58982;SDS011;44771;49.982;8.560;2023-05-10T07:28:12;15.32;;;14.00;;
58982;SDS011;44771;49.982;8.560;2023-05-10T07:33:17;16.08;;;13.10;;
58982;SDS011;44771;49.982;8.560;2023-05-10T07:38:20;20.30;;;13.90;;
58982;SDS011;44771;49.982;8.560;2023-05-10T07:43:22;14.65;;;13.05;;
58982;SDS011;44771;49.982;8.560;2023-05-10T07:48:24;15.88;;;14.40;;
58982;SDS011;44771;49.982;8.560;2023-05-10T07:53:27;14.57;;;13.45;;
58982;SDS011;44771;49.982;8.560;2023-05-10T07:58:29;14.95;;;13.48;;
58982;SDS011;44771;49.982;8.560;2023-05-10T08:03:32;12.95;;;11.82;;
58982;SDS011;44771;49.982;8.560;2023-05-10T08:08:35;15.65;;;14.45;;
58982;SDS011;44771;49.982;8.560;2023-05-10T08:13:37;15.30;;;13.85;;
58982;SDS011;44771;49.982;8.560;2023-05-10T08:18:39;14.38;;;13.02;;
58982;SDS011;44771;49.982;8.560;2023-05-10T08:23:42;16.75;;;15.43;;
58982;SDS011;44771;49.982;8.560;2023-05-10T08:28:44;14.30;;;13.30;;
58982;SDS011;44771;49.982;8.560;2023-05-10T08:33:46;13.32;;;12.35;;
58982;SDS011;44771;49.982;8.560;2023-05-10T08:38:50;12.95;;;12.15;;
58982;SDS011;44771;49.982;8.560;2023-05-10T08:43:52;14.17;;;12.83;;
58982;SDS011;44771;49.982;8.560;2023-05-10T08:48:57;13.98;;;12.68;;
58982;SDS011;44771;49.982;8.560;2023-05-10T08:54:04;14.30;;;13.10;;
58982;SDS011;44771;49.982;8.560;2023-05-10T08:59:06;14.20;;;12.85;;
58982;SDS011;44771;49.982;8.560;2023-05-10T09:04:08;14.63;;;13.40;;
58982;SDS011;44771;49.982;8.560;2023-05-10T09:09:12;14.18;;;13.23;;
58982;SDS011;44771;49.982;8.560;2023-05-10T09:14:14;15.25;;;13.00;;
58982;SDS011;44771;49.982;8.560;2023-05-10T09:19:17;15.70;;;14.27;;
58982;SDS011;44771;49.982;8.560;2023-05-10T09:24:20;16.05;;;14.55;;
58982;SDS011;44771;49.982;8.560;2023-05-10T09:29:26;14.43;;;13.13;;
58982;SDS011;44771;49.982;8.560;2023-05-10T09:34:40;16.25;;;15.00;;
58982;SDS011;44771;49.982;8.560;2023-05-10T09:39:43;13.93;;;12.95;;
58982;SDS011;44771;49.982;8.560;2023-05-10T09:44:45;13.65;;;12.85;;
58982;SDS011;44771;49.982;8.560;2023-05-10T09:49:49;14.30;;;13.27;;
58982;SDS011;44771;49.982;8.560;2023-05-10T09:54:53;14.18;;;13.02;;
58982;SDS011;44771;49.982;8.560;2023-05-10T09:59:55;14.35;;;13.05;;
58982;SDS011;44771;49.982;8.560;2023-05-10T10:04:57;13.18;;;12.18;;
58982;SDS011;44771;49.982;8.560;2023-05-10T10:10:03;16.10;;;13.00;;
58982;SDS011;44771;49.982;8.560;2023-05-10T10:15:06;13.57;;;12.45;;
58982;SDS011;44771;49.982;8.560;2023-05-10T10:20:15;14.30;;;13.13;;
58982;SDS011;44771;49.982;8.560;2023-05-10T10:25:22;13.40;;;12.50;;
58982;SDS011;44771;49.982;8.560;2023-05-10T10:30:35;13.95;;;12.73;;
58982;SDS011;44771;49.982;8.560;2023-05-10T10:35:43;13.48;;;12.55;;
58982;SDS011;44771;49.982;8.560;2023-05-10T10:40:48;13.38;;;12.48;;
58982;SDS011;44771;49.982;8.560;2023-05-10T10:46:09;13.43;;;12.40;;
58982;SDS011;44771;49.982;8.560;2023-05-10T10:51:16;12.85;;;11.90;;
58982;SDS011;44771;49.982;8.560;2023-05-10T10:56:19;13.15;;;12.25;;
58982;SDS011;44771;49.982;8.560;2023-05-10T11:01:23;12.88;;;12.05;;
58982;SDS011;44771;49.982;8.560;2023-05-10T11:06:33;13.77;;;12.68;;
58982;SDS011;44771;49.982;8.560;2023-05-10T11:11:39;12.68;;;11.73;;
58982;SDS011;44771;49.982;8.560;2023-05-10T11:16:50;13.23;;;12.25;;
58982;SDS011;44771;49.982;8.560;2023-05-10T11:27:16;14.30;;;13.27;;
58982;SDS011;44771;49.982;8.560;2023-05-10T11:32:22;13.00;;;12.15;;
58982;SDS011;44771;49.982;8.560;2023-05-10T11:37:27;13.55;;;12.55;;
58982;SDS011;44771;49.982;8.560;2023-05-10T11:42:31;14.18;;;12.95;;
58982;SDS011;44771;49.982;8.560;2023-05-10T11:47:33;13.00;;;12.02;;
58982;SDS011;44771;49.982;8.560;2023-05-10T11:52:35;11.77;;;11.18;;
58982;SDS011;44771;49.982;8.560;2023-05-10T11:57:39;12.35;;;11.60;;
58982;SDS011;44771;49.982;8.560;2023-05-10T12:02:41;12.00;;;11.40;;
58982;SDS011;44771;49.982;8.560;2023-05-10T12:13:23;12.35;;;11.20;;
58982;SDS011;44771;49.982;8.560;2023-05-10T12:18:25;12.10;;;11.40;;
58982;SDS011;44771;49.982;8.560;2023-05-10T12:23:27;11.93;;;11.00;;
58982;SDS011;44771;49.982;8.560;2023-05-10T12:28:34;12.10;;;11.38;;
58982;SDS011;44771;49.982;8.560;2023-05-10T12:33:54;10.63;;;10.07;;
58982;SDS011;44771;49.982;8.560;2023-05-10T12:39:02;15.23;;;13.50;;
58982;SDS011;44771;49.982;8.560;2023-05-10T12:49:53;10.23;;;9.65;;
58982;SDS011;44771;49.982;8.560;2023-05-10T12:55:03;10.65;;;10.02;;
58982;SDS011;44771;49.982;8.560;2023-05-10T13:00:18;11.50;;;10.88;;
58982;SDS011;44771;49.982;8.560;2023-05-10T13:05:20;11.63;;;10.65;;
58982;SDS011;44771;49.982;8.560;2023-05-10T13:10:36;11.52;;;10.68;;
58982;SDS011;44771;49.982;8.560;2023-05-10T13:15:48;11.15;;;10.52;;
58982;SDS011;44771;49.982;8.560;2023-05-10T13:20:57;12.00;;;10.95;;
58982;SDS011;44771;49.982;8.560;2023-05-10T13:26:08;10.77;;;10.05;;
58982;SDS011;44771;49.982;8.560;2023-05-10T13:37:04;10.93;;;10.15;;
58982;SDS011;44771;49.982;8.560;2023-05-10T13:47:53;11.93;;;11.32;;
58982;SDS011;44771;49.982;8.560;2023-05-10T13:52:55;12.77;;;11.80;;
58982;SDS011;44771;49.982;8.560;2023-05-10T13:58:05;10.95;;;10.15;;
58982;SDS011;44771;49.982;8.560;2023-05-10T14:03:08;10.93;;;10.43;;
58982;SDS011;44771;49.982;8.560;2023-05-10T14:08:10;17.52;;;11.93;;
58982;SDS011;44771;49.982;8.560;2023-05-10T14:13:12;11.05;;;10.35;;
58982;SDS011;44771;49.982;8.560;2023-05-10T14:18:15;10.57;;;9.85;;
58982;SDS011;44771;49.982;8.560;2023-05-10T14:23:17;11.50;;;10.52;;
58982;SDS011;44771;49.982;8.560;2023-05-10T14:28:19;9.80;;;9.30;;
58982;SDS011;44771;49.982;8.560;2023-05-10T14:33:22;11.10;;;10.45;;
58982;SDS011;44771;49.982;8.560;2023-05-10T14:38:35;12.40;;;11.50;;
58982;SDS011;44771;49.982;8.560;2023-05-10T14:54:23;10.85;;;10.15;;
58982;SDS011;44771;49.982;8.560;2023-05-10T14:59:30;11.95;;;11.07;;
58982;SDS011;44771;49.982;8.560;2023-05-10T15:04:44;12.65;;;11.38;;
58982;SDS011;44771;49.982;8.560;2023-05-10T15:09:47;11.18;;;10.48;;
58982;SDS011;44771;49.982;8.560;2023-05-10T15:14:50;12.27;;;11.10;;
58982;SDS011;44771;49.982;8.560;2023-05-10T15:19:54;12.02;;;11.12;;
58982;SDS011;44771;49.982;8.560;2023-05-10T15:24:55;12.18;;;11.40;;
58982;SDS011;44771;49.982;8.560;2023-05-10T15:29:57;11.45;;;10.65;;
58982;SDS011;44771;49.982;8.560;2023-05-10T15:35:00;11.27;;;10.65;;
58982;SDS011;44771;49.982;8.560;2023-05-10T15:40:09;11.75;;;10.95;;
58982;SDS011;44771;49.982;8.560;2023-05-10T15:45:17;12.00;;;10.95;;
58982;SDS011;44771;49.982;8.560;2023-05-10T15:50:21;11.12;;;10.52;;
58982;SDS011;44771;49.982;8.560;2023-05-10T15:55:23;12.32;;;10.95;;
58982;SDS011;44771;49.982;8.560;2023-05-10T16:00:26;12.75;;;11.90;;
58982;SDS011;44771;49.982;8.560;2023-05-10T16:05:29;12.77;;;11.90;;
58982;SDS011;44771;49.982;8.560;2023-05-10T16:10:31;12.25;;;11.55;;
58982;SDS011;44771;49.982;8.560;2023-05-10T16:15:32;12.48;;;11.70;;
58982;SDS011;44771;49.982;8.560;2023-05-10T16:20:37;11.57;;;10.77;;
58982;SDS011;44771;49.982;8.560;2023-05-10T16:25:39;12.23;;;11.23;;
58982;SDS011;44771;49.982;8.560;2023-05-10T16:30:40;12.20;;;11.30;;
58982;SDS011;44771;49.982;8.560;2023-05-10T16:35:44;10.65;;;9.77;;
58982;SDS011;44771;49.982;8.560;2023-05-10T16:40:45;11.68;;;11.07;;
58982;SDS011;44771;49.982;8.560;2023-05-10T16:45:47;12.43;;;11.60;;
58982;SDS011;44771;49.982;8.560;2023-05-10T16:50:50;10.65;;;9.63;;
58982;SDS011;44771;49.982;8.560;2023-05-10T16:55:52;11.57;;;10.70;;
58982;SDS011;44771;49.982;8.560;2023-05-10T17:00:54;12.57;;;11.77;;
58982;SDS011;44771;49.982;8.560;2023-05-10T17:05:57;11.98;;;11.12;;
58982;SDS011;44771;49.982;8.560;2023-05-10T17:10:59;13.85;;;12.63;;
58982;SDS011;44771;49.982;8.560;2023-05-10T17:16:01;12.37;;;11.55;;
58982;SDS011;44771;49.982;8.560;2023-05-10T17:21:06;12.63;;;11.93;;
58982;SDS011;44771;49.982;8.560;2023-05-10T17:26:08;12.75;;;11.50;;
58982;SDS011;44771;49.982;8.560;2023-05-10T17:31:10;11.38;;;10.68;;
58982;SDS011;44771;49.982;8.560;2023-05-10T17:36:14;11.77;;;11.12;;
58982;SDS011;44771;49.982;8.560;2023-05-10T17:41:16;13.15;;;12.13;;
58982;SDS011;44771;49.982;8.560;2023-05-10T17:46:18;12.15;;;11.35;;
58982;SDS011;44771;49.982;8.560;2023-05-10T17:51:22;12.73;;;11.88;;
58982;SDS011;44771;49.982;8.560;2023-05-10T17:56:24;13.55;;;12.65;;
58982;SDS011;44771;49.982;8.560;2023-05-10T18:01:25;13.07;;;12.18;;
58982;SDS011;44771;49.982;8.560;2023-05-10T18:06:29;12.65;;;11.77;;
58982;SDS011;44771;49.982;8.560;2023-05-10T18:11:33;12.30;;;11.30;;
58982;SDS011;44771;49.982;8.560;2023-05-10T18:16:35;12.48;;;11.52;;
58982;SDS011;44771;49.982;8.560;2023-05-10T18:21:38;14.48;;;13.13;;
58982;SDS011;44771;49.982;8.560;2023-05-10T18:26:40;12.75;;;11.95;;
58982;SDS011;44771;49.982;8.560;2023-05-10T18:31:42;13.00;;;12.30;;
58982;SDS011;44771;49.982;8.560;2023-05-10T18:36:46;12.77;;;11.70;;
58982;SDS011;44771;49.982;8.560;2023-05-10T18:41:48;11.95;;;11.18;;
58982;SDS011;44771;49.982;8.560;2023-05-10T18:46:50;13.02;;;12.15;;
58982;SDS011;44771;49.982;8.560;2023-05-10T18:51:53;14.70;;;13.45;;
58982;SDS011;44771;49.982;8.560;2023-05-10T18:56:55;13.52;;;12.50;;
58982;SDS011;44771;49.982;8.560;2023-05-10T19:01:59;14.02;;;12.88;;
58982;SDS011;44771;49.982;8.560;2023-05-10T19:07:02;13.05;;;12.20;;
58982;SDS011;44771;49.982;8.560;2023-05-10T19:12:04;13.05;;;12.18;;
58982;SDS011;44771;49.982;8.560;2023-05-10T19:17:06;13.85;;;12.80;;
58982;SDS011;44771;49.982;8.560;2023-05-10T19:22:09;14.02;;;12.65;;
58982;SDS011;44771;49.982;8.560;2023-05-10T19:27:12;13.07;;;12.17;;
58982;SDS011;44771;49.982;8.560;2023-05-10T19:32:14;13.52;;;12.37;;
58982;SDS011;44771;49.982;8.560;2023-05-10T19:37:18;13.60;;;12.43;;
58982;SDS011;44771;49.982;8.560;2023-05-10T19:42:19;13.95;;;12.80;;
58982;SDS011;44771;49.982;8.560;2023-05-10T19:47:24;16.17;;;14.65;;
58982;SDS011;44771;49.982;8.560;2023-05-10T19:57:29;14.30;;;13.20;;
58982;SDS011;44771;49.982;8.560;2023-05-10T20:02:31;13.48;;;12.50;;
58982;SDS011;44771;49.982;8.560;2023-05-10T20:07:34;13.70;;;12.90;;
58982;SDS011;44771;49.982;8.560;2023-05-10T20:12:36;13.60;;;12.80;;
58982;SDS011;44771;49.982;8.560;2023-05-10T20:17:38;13.60;;;12.55;;
58982;SDS011;44771;49.982;8.560;2023-05-10T20:22:42;14.20;;;13.15;;
58982;SDS011;44771;49.982;8.560;2023-05-10T20:27:44;15.13;;;13.77;;
58982;SDS011;44771;49.982;8.560;2023-05-10T20:32:46;15.95;;;12.98;;
58982;SDS011;44771;49.982;8.560;2023-05-10T20:37:49;13.27;;;12.48;;
58982;SDS011;44771;49.982;8.560;2023-05-10T20:42:51;14.02;;;13.02;;
58982;SDS011;44771;49.982;8.560;2023-05-10T20:47:53;13.35;;;12.45;;
58982;SDS011;44771;49.982;8.560;2023-05-10T20:52:56;12.45;;;11.75;;
58982;SDS011;44771;49.982;8.560;2023-05-10T20:57:58;12.70;;;12.00;;
58982;SDS011;44771;49.982;8.560;2023-05-10T21:03:02;13.30;;;12.50;;
58982;SDS011;44771;49.982;8.560;2023-05-10T21:08:06;12.35;;;11.63;;
58982;SDS011;44771;49.982;8.560;2023-05-10T21:13:11;13.85;;;12.88;;
58982;SDS011;44771;49.982;8.560;2023-05-10T21:18:12;13.27;;;12.47;;
58982;SDS011;44771;49.982;8.560;2023-05-10T21:23:16;13.48;;;12.68;;
58982;SDS011;44771;49.982;8.560;2023-05-10T21:28:20;12.95;;;12.15;;
58982;SDS011;44771;49.982;8.560;2023-05-10T21:33:22;13.17;;;12.17;;
58982;SDS011;44771;49.982;8.560;2023-05-10T21:38:27;13.50;;;12.60;;
58982;SDS011;44771;49.982;8.560;2023-05-10T21:43:29;12.93;;;12.00;;
58982;SDS011;44771;49.982;8.560;2023-05-10T21:48:31;13.93;;;12.93;;
58982;SDS011;44771;49.982;8.560;2023-05-10T21:53:35;12.98;;;12.02;;
58982;SDS011;44771;49.982;8.560;2023-05-10T21:58:37;14.13;;;13.30;;
58982;SDS011;44771;49.982;8.560;2023-05-10T22:03:39;14.75;;;13.93;;
58982;SDS011;44771;49.982;8.560;2023-05-10T22:08:42;14.10;;;13.13;;
58982;SDS011;44771;49.982;8.560;2023-05-10T22:13:44;13.62;;;12.75;;
58982;SDS011;44771;49.982;8.560;2023-05-10T22:18:46;13.02;;;12.23;;
58982;SDS011;44771;49.982;8.560;2023-05-10T22:23:49;13.07;;;12.37;;
58982;SDS011;44771;49.982;8.560;2023-05-10T22:28:51;14.20;;;13.30;;
58982;SDS011;44771;49.982;8.560;2023-05-10T22:33:52;13.20;;;11.98;;
58982;SDS011;44771;49.982;8.560;2023-05-10T22:38:56;13.73;;;12.88;;
58982;SDS011;44771;49.982;8.560;2023-05-10T22:44:01;12.50;;;11.77;;
58982;SDS011;44771;49.982;8.560;2023-05-10T22:49:02;12.95;;;11.98;;
58982;SDS011;44771;49.982;8.560;2023-05-10T22:54:06;14.87;;;13.82;;
58982;SDS011;44771;49.982;8.560;2023-05-10T22:59:07;12.00;;;11.10;;
58982;SDS011;44771;49.982;8.560;2023-05-10T23:04:09;12.80;;;11.93;;
58982;SDS011;44771;49.982;8.560;2023-05-10T23:09:12;13.75;;;12.95;;
58982;SDS011;44771;49.982;8.560;2023-05-10T23:14:14;13.75;;;12.85;;
58982;SDS011;44771;49.982;8.560;2023-05-10T23:19:16;12.55;;;11.65;;
58982;SDS011;44771;49.982;8.560;2023-05-10T23:24:19;14.00;;;13.20;;
58982;SDS011;44771;49.982;8.560;2023-05-10T23:29:21;12.57;;;11.80;;
58982;SDS011;44771;49.982;8.560;2023-05-10T23:34:23;13.13;;;12.32;;
58982;SDS011;44771;49.982;8.560;2023-05-10T23:39:26;14.02;;;12.98;;
58982;SDS011;44771;49.982;8.560;2023-05-10T23:44:28;13.93;;;12.77;;
58982;SDS011;44771;49.982;8.560;2023-05-10T23:49:29;13.60;;;12.65;;
58982;SDS011;44771;49.982;8.560;2023-05-10T23:54:35;12.07;;;11.30;;
58982;SDS011;44771;49.982;8.560;2023-05-10T23:59:38;13.02;;;12.20;;
